Time;durP1;ratioP1;P1;durP2;ratioP2;P2;SDS_P1;SDS_P2;PMS_P1;PMS_P2;Temp;Humidity;BMP_temperature;BMP_pressure;BME280_temperature;BME280_humidity;BME280_pressure;Samples;Min_cycle;Max_cycle;Signal;HPM_P1;HPM_P2
2023/07/16 00:01:34;;;;;;;11.13;3.10;;;14.80;99.90;;;;;;5093103;28;20050;-21
2023/07/16 00:04:00;;;;;;;14.10;4.00;;;14.70;99.90;;;;;;5081256;28;20386;-21
2023/07/16 00:06:25;;;;;;;15.60;3.42;;;14.70;99.90;;;;;;5092850;28;20066;-21
2023/07/16 00:08:51;;;;;;;11.55;3.65;;;14.70;99.90;;;;;;5095307;28;20568;-21
2023/07/16 00:11:17;;;;;;;12.07;2.80;;;14.70;99.90;;;;;;5094947;28;20044;-21
2023/07/16 00:13:46;;;;;;;11.75;2.85;;;14.60;1.00;;;;;;5083493;28;20111;-21
2023/07/16 00:16:13;;;;;;;11.00;2.60;;;14.50;1.00;;;;;;5074551;28;20048;-21
2023/07/16 00:18:39;;;;;;;6.85;2.88;;;14.50;1.00;;;;;;5086518;28;20050;-21
2023/07/16 00:21:05;;;;;;;8.18;2.88;;;14.50;1.00;;;;;;5093946;28;20044;-21
2023/07/16 00:23:31;;;;;;;10.32;3.25;;;14.50;99.90;;;;;;5087479;28;20070;-21
2023/07/16 00:25:56;;;;;;;9.07;3.03;;;14.60;99.90;;;;;;5086013;28;20450;-21
2023/07/16 00:28:22;;;;;;;13.35;3.22;;;14.50;1.00;;;;;;5074835;28;20048;-21
2023/07/16 00:30:48;;;;;;;10.18;2.88;;;14.60;99.90;;;;;;5080647;28;20044;-21
2023/07/16 00:33:13;;;;;;;11.80;3.40;;;14.70;99.90;;;;;;5083744;28;20130;-21
2023/07/16 00:35:45;;;;;;;11.40;3.50;;;14.80;99.90;;;;;;5089012;28;20052;-21
2023/07/16 00:38:11;;;;;;;15.23;3.57;;;14.90;99.90;;;;;;5090231;28;20036;-21
2023/07/16 00:40:37;;;;;;;12.02;3.38;;;15.00;99.90;;;;;;5083912;28;20059;-22
2023/07/16 00:43:02;;;;;;;11.80;3.10;;;15.00;99.90;;;;;;5074791;28;20041;-23
2023/07/16 00:45:28;;;;;;;11.90;3.42;;;15.00;99.90;;;;;;5084037;28;20481;-23
2023/07/16 00:47:54;;;;;;;9.57;3.22;;;15.00;99.90;;;;;;5092725;28;20052;-23
2023/07/16 00:50:20;;;;;;;11.38;2.67;;;15.10;91.20;;;;;;5085944;28;20052;-23
2023/07/16 00:52:46;;;;;;;8.60;2.53;;;15.20;35.10;;;;;;5074906;28;20567;-23
2023/07/16 00:55:12;;;;;;;15.38;3.30;;;15.20;1.00;;;;;;5069332;28;20040;-23
2023/07/16 00:57:39;;;;;;;11.50;2.67;;;15.20;1.00;;;;;;5079140;28;20047;-22
2023/07/16 01:00:06;;;;;;;9.73;2.72;;;15.20;1.00;;;;;;5073725;28;20105;-23
2023/07/16 01:02:32;;;;;;;8.85;3.22;;;15.30;1.00;;;;;;5082875;28;20112;-22
2023/07/16 01:04:58;;;;;;;9.07;2.47;;;15.30;1.00;;;;;;5087650;28;20041;-23
2023/07/16 01:07:26;;;;;;;14.18;3.60;;;15.40;1.00;;;;;;5073859;28;20044;-22
2023/07/16 01:09:54;;;;;;;10.73;3.53;;;15.40;1.00;;;;;;5073745;28;20047;-23
2023/07/16 01:12:22;;;;;;;8.60;3.25;;;15.50;99.90;;;;;;5072788;28;20052;-23
2023/07/16 01:14:49;;;;;;;11.32;3.53;;;15.60;99.90;;;;;;5077117;28;20136;-23
2023/07/16 01:17:14;;;;;;;10.57;2.78;;;15.70;99.90;;;;;;5073566;28;20123;-23
2023/07/16 01:19:40;;;;;;;12.38;3.55;;;15.70;99.90;;;;;;5073620;28;20133;-23
2023/07/16 01:22:14;;;;;;;12.57;4.13;;;15.80;99.90;;;;;;5073603;28;20051;-23
2023/07/16 01:25:18;;;;;;;14.10;3.53;;;16.00;99.90;;;;;;5074171;28;20452;-23
2023/07/16 01:28:11;;;;;;;14.07;2.90;;;16.00;26.00;;;;;;5088098;28;20051;-23
2023/07/16 01:30:39;;;;;;;12.93;3.28;;;16.00;99.90;;;;;;5086214;28;20048;-23
2023/07/16 01:33:05;;;;;;;13.48;3.15;;;15.90;99.90;;;;;;5075904;28;20555;-23
2023/07/16 01:35:32;;;;;;;11.27;3.08;;;16.00;99.90;;;;;;5072279;28;20033;-23
2023/07/16 01:37:57;;;;;;;18.50;4.28;;;15.90;99.90;;;;;;5073159;28;20381;-23
2023/07/16 01:40:23;;;;;;;11.25;2.97;;;15.90;99.90;;;;;;5083413;28;20048;-23
2023/07/16 01:42:49;;;;;;;13.68;3.20;;;15.90;99.90;;;;;;5089336;28;20048;-23
2023/07/16 01:45:14;;;;;;;12.88;2.92;;;16.00;99.90;;;;;;5086643;28;20040;-23
2023/07/16 01:48:15;;;;;;;15.30;2.67;;;15.90;99.90;;;;;;5074831;28;20084;-23
2023/07/16 01:50:41;;;;;;;11.50;3.00;;;15.80;99.90;;;;;;5071312;28;20450;-23
2023/07/16 01:53:07;;;;;;;9.50;2.40;;;15.80;99.90;;;;;;5073170;28;20044;-23
2023/07/16 01:55:33;;;;;;;14.75;3.53;;;15.80;99.90;;;;;;5083482;28;20051;-23
2023/07/16 01:57:59;;;;;;;11.75;3.05;;;15.90;99.90;;;;;;5071087;28;20059;-23
2023/07/16 02:00:24;;;;;;;10.00;3.00;;;15.90;99.90;;;;;;5074084;28;20138;-23
2023/07/16 02:02:50;;;;;;;8.82;2.47;;;15.80;99.90;;;;;;5094694;28;20532;-23
2023/07/16 02:05:16;;;;;;;11.55;2.42;;;15.80;99.90;;;;;;5090961;28;20044;-23
2023/07/16 02:07:42;;;;;;;6.95;2.22;;;15.70;99.90;;;;;;5095423;28;20079;-23
2023/07/16 02:10:08;;;;;;;9.93;2.25;;;15.70;1.00;;;;;;5096627;28;20051;-23
2023/07/16 02:12:34;;;;;;;6.82;2.03;;;15.70;99.90;;;;;;5096965;28;20485;-23
2023/07/16 02:15:02;;;;;;;9.52;2.95;;;15.80;99.90;;;;;;5097820;28;20135;-23
2023/07/16 02:17:28;;;;;;;8.90;2.60;;;15.80;99.90;;;;;;5089923;28;20123;-23
2023/07/16 02:19:56;;;;;;;8.32;3.10;;;15.80;1.00;;;;;;5076844;28;20533;-23
2023/07/16 02:22:21;;;;;;;7.95;2.35;;;15.80;99.90;;;;;;5078694;28;20056;-23
2023/07/16 02:24:47;;;;;;;10.15;2.53;;;15.80;1.00;;;;;;5097329;28;20043;-23
2023/07/16 02:27:13;;;;;;;8.43;3.00;;;15.80;1.00;;;;;;5094948;28;20397;-23
2023/07/16 02:29:38;;;;;;;13.90;3.13;;;15.80;99.90;;;;;;5076514;28;20048;-23
2023/07/16 02:32:04;;;;;;;7.53;2.05;;;15.80;99.90;;;;;;5076608;28;20041;-23
2023/07/16 02:34:30;;;;;;;9.18;2.53;;;15.70;99.90;;;;;;5075640;28;20052;-23
2023/07/16 02:36:56;;;;;;;11.05;3.08;;;15.70;1.00;;;;;;5075650;28;20038;-23
2023/07/16 02:39:21;;;;;;;6.25;2.78;;;15.70;1.00;;;;;;5089427;28;20075;-23
2023/07/16 02:41:47;;;;;;;9.82;2.70;;;15.70;1.00;;;;;;5083156;28;20048;-23
2023/07/16 02:44:13;;;;;;;9.32;2.90;;;15.70;1.00;;;;;;5081332;28;20032;-23
2023/07/16 02:46:39;;;;;;;8.48;2.63;;;15.80;99.90;;;;;;5094040;28;20101;-23
2023/07/16 02:49:04;;;;;;;10.60;3.50;;;15.80;99.90;;;;;;5086989;28;20451;-23
2023/07/16 02:51:30;;;;;;;10.50;3.38;;;15.70;99.90;;;;;;5096531;28;20092;-23
2023/07/16 02:53:56;;;;;;;10.02;2.90;;;15.70;99.90;;;;;;5094103;28;20131;-23
2023/07/16 02:56:22;;;;;;;14.07;3.35;;;15.70;99.90;;;;;;5095531;28;20124;-23
2023/07/16 02:58:47;;;;;;;9.98;3.67;;;15.60;99.90;;;;;;5084069;28;20036;-23
2023/07/16 03:01:13;;;;;;;10.45;3.55;;;15.60;99.90;;;;;;5090056;28;20496;-23
2023/07/16 03:03:39;;;;;;;9.95;3.63;;;15.60;1.00;;;;;;5092917;28;20386;-23
2023/07/16 03:06:04;;;;;;;8.77;3.15;;;15.60;99.90;;;;;;5093554;28;20052;-23
2023/07/16 03:08:34;;;;;;;7.63;3.25;;;15.70;99.90;;;;;;5084678;28;20054;-23
2023/07/16 03:11:00;;;;;;;9.68;3.30;;;15.70;99.90;;;;;;5081290;28;20055;-23
2023/07/16 03:13:26;;;;;;;14.05;3.78;;;15.70;99.90;;;;;;5091744;28;20036;-23
2023/07/16 03:15:51;;;;;;;10.68;3.50;;;15.70;99.90;;;;;;5096619;28;20382;-23
2023/07/16 03:18:19;;;;;;;12.18;3.50;;;15.60;99.90;;;;;;5096044;28;20096;-23
2023/07/16 03:20:45;;;;;;;8.48;3.70;;;15.60;99.90;;;;;;5096532;28;20048;-23
2023/07/16 03:23:10;;;;;;;12.68;4.35;;;15.70;99.90;;;;;;5088054;28;20375;-23
2023/07/16 03:25:36;;;;;;;12.27;3.95;;;15.60;99.90;;;;;;5074533;28;20060;-24
2023/07/16 03:28:02;;;;;;;12.32;3.88;;;15.60;99.90;;;;;;5075608;28;20129;-23
2023/07/16 03:30:29;;;;;;;8.68;3.40;;;15.60;99.90;;;;;;5076400;28;20052;-23
2023/07/16 03:32:55;;;;;;;13.27;4.25;;;15.70;99.90;;;;;;5075574;28;20044;-23
2023/07/16 03:35:23;;;;;;;12.95;4.43;;;15.70;99.90;;;;;;5076044;28;20052;-23
2023/07/16 03:37:49;;;;;;;14.05;4.25;;;15.70;99.90;;;;;;5074965;28;20568;-23
2023/07/16 03:40:16;;;;;;;11.73;4.50;;;15.60;1.00;;;;;;5087462;28;20040;-23
2023/07/16 03:42:42;;;;;;;10.00;3.55;;;15.60;99.90;;;;;;5094334;28;20040;-23
2023/07/16 03:45:09;;;;;;;11.63;3.53;;;15.60;1.00;;;;;;5089375;28;20367;-23
2023/07/16 03:47:35;;;;;;;12.55;4.18;;;15.60;1.00;;;;;;5075517;28;20174;-23
2023/07/16 03:50:01;;;;;;;12.45;4.30;;;15.60;1.00;;;;;;5088651;28;20451;-23
2023/07/16 03:52:26;;;;;;;13.00;3.88;;;15.60;1.00;;;;;;5095349;28;20048;-23
2023/07/16 03:54:52;;;;;;;10.05;3.78;;;15.70;1.00;;;;;;5083091;28;20072;-23
2023/07/16 03:57:18;;;;;;;14.05;5.03;;;15.80;99.90;;;;;;5081593;28;20036;-23
2023/07/16 03:59:44;;;;;;;11.00;4.30;;;15.80;1.00;;;;;;5084547;28;20541;-23
2023/07/16 04:02:09;;;;;;;15.30;4.18;;;15.80;99.90;;;;;;5084666;28;20395;-23
2023/07/16 04:04:35;;;;;;;12.73;4.53;;;15.80;99.90;;;;;;5080661;28;20032;-23
2023/07/16 04:07:01;;;;;;;16.52;4.20;;;15.80;99.90;;;;;;5082478;28;20037;-23
2023/07/16 04:09:26;;;;;;;9.73;4.88;;;15.80;1.00;;;;;;5081897;28;20189;-23
2023/07/16 04:11:52;;;;;;;10.73;4.53;;;15.80;1.00;;;;;;5094099;28;20040;-23
2023/07/16 04:14:18;;;;;;;12.73;5.22;;;15.90;1.00;;;;;;5084148;28;20055;-23
2023/07/16 04:16:44;;;;;;;13.95;4.68;;;16.00;1.00;;;;;;5083736;28;20516;-23
2023/07/16 04:19:09;;;;;;;11.50;4.88;;;16.00;1.00;;;;;;5088359;28;20048;-23
2023/07/16 04:21:35;;;;;;;10.48;4.93;;;16.00;99.90;;;;;;5087084;28;20047;-23
2023/07/16 04:24:05;;;;;;;10.02;4.20;;;16.00;99.90;;;;;;5094203;28;20505;-24
2023/07/16 04:26:31;;;;;;;17.20;7.60;;;16.00;1.00;;;;;;5074947;28;20044;-23
2023/07/16 04:28:57;;;;;;;15.52;5.20;;;16.00;1.00;;;;;;5072776;28;20047;-23
2023/07/16 04:31:23;;;;;;;12.52;4.93;;;16.00;1.00;;;;;;5074373;28;20470;-23
2023/07/16 04:33:48;;;;;;;9.88;4.07;;;16.10;1.00;;;;;;5074324;28;20048;-23
2023/07/16 04:36:15;;;;;;;15.10;5.43;;;16.10;1.00;;;;;;5074167;28;20041;-23
2023/07/16 04:38:41;;;;;;;14.23;5.00;;;16.10;1.00;;;;;;5074311;28;20468;-23
2023/07/16 04:41:06;;;;;;;9.73;4.47;;;16.20;99.90;;;;;;5072990;28;20044;-23
2023/07/16 04:43:32;;;;;;;15.98;5.15;;;16.30;99.90;;;;;;5074918;28;20040;-24
2023/07/16 04:45:58;;;;;;;10.00;4.57;;;16.30;99.90;;;;;;5074145;28;20044;-23
2023/07/16 04:48:27;;;;;;;16.55;5.43;;;16.40;99.90;;;;;;5073485;28;20055;-23
2023/07/16 04:50:55;;;;;;;12.20;5.60;;;16.40;99.90;;;;;;5087802;28;20127;-23
2023/07/16 04:53:22;;;;;;;16.27;6.30;;;16.40;99.90;;;;;;5094777;28;20044;-23
2023/07/16 04:55:50;;;;;;;11.20;4.82;;;16.40;99.90;;;;;;5093161;28;20051;-24
2023/07/16 04:58:16;;;;;;;16.80;6.10;;;16.50;99.90;;;;;;5092113;28;20044;-23
2023/07/16 05:00:42;;;;;;;17.08;5.65;;;16.50;99.90;;;;;;5086832;28;20040;-23
2023/07/16 05:03:08;;;;;;;19.77;5.63;;;16.50;99.90;;;;;;5092798;28;20040;-24
2023/07/16 05:05:34;;;;;;;11.48;5.53;;;16.60;99.90;;;;;;5081593;28;20047;-24
2023/07/16 05:08:00;;;;;;;13.32;5.22;;;16.60;99.90;;;;;;5078017;28;20048;-23
2023/07/16 05:10:27;;;;;;;10.45;4.75;;;16.70;99.90;;;;;;5080431;28;20047;-23
2023/07/16 05:12:53;;;;;;;16.17;5.35;;;16.80;99.90;;;;;;5093198;28;20052;-24
2023/07/16 05:15:19;;;;;;;9.90;4.53;;;16.90;99.90;;;;;;5091894;28;20078;-23
2023/07/16 05:17:45;;;;;;;11.45;4.75;;;17.10;99.90;;;;;;5081732;28;20044;-24
2023/07/16 05:20:11;;;;;;;12.88;5.90;;;17.20;99.90;;;;;;5077297;28;20074;-24
2023/07/16 05:22:36;;;;;;;16.23;6.55;;;17.20;99.90;;;;;;5072504;28;20498;-23
2023/07/16 05:25:02;;;;;;;16.45;5.03;;;17.20;50.20;;;;;;5084334;28;20079;-24
2023/07/16 05:27:28;;;;;;;13.05;4.85;;;17.30;18.70;;;;;;5082870;28;20040;-23
2023/07/16 05:29:54;;;;;;;14.10;5.50;;;17.30;22.10;;;;;;5081308;28;20048;-24
2023/07/16 05:32:21;;;;;;;15.23;4.85;;;17.30;99.90;;;;;;5080696;28;20055;-23
2023/07/16 05:34:47;;;;;;;11.82;4.75;;;17.30;99.90;;;;;;5090659;28;20040;-23
2023/07/16 05:37:13;;;;;;;16.27;4.85;;;17.20;1.00;;;;;;5090604;28;20043;-23
2023/07/16 05:39:39;;;;;;;11.40;4.28;;;17.10;99.90;;;;;;5096556;28;20468;-24
2023/07/16 05:42:05;;;;;;;9.68;4.07;;;17.00;7.80;;;;;;5079560;28;20040;-24
2023/07/16 05:44:31;;;;;;;15.05;5.25;;;17.10;99.90;;;;;;5060029;28;20463;-24
2023/07/16 05:46:59;;;;;;;15.55;4.68;;;17.30;99.90;;;;;;5092086;28;20048;-24
2023/07/16 05:49:26;;;;;;;12.18;4.40;;;17.30;1.00;;;;;;5094611;28;20043;-23
2023/07/16 05:51:55;;;;;;;9.95;4.35;;;17.30;59.10;;;;;;5096775;28;20044;-24
2023/07/16 05:54:22;;;;;;;12.60;4.53;;;17.40;24.10;;;;;;5078585;28;20157;-23
2023/07/16 05:56:50;;;;;;;9.07;4.28;;;17.40;1.00;;;;;;5080437;28;20048;-24
2023/07/16 05:59:15;;;;;;;10.50;4.32;;;17.30;1.00;;;;;;5084285;28;20055;-23
2023/07/16 06:01:41;;;;;;;19.73;4.80;;;17.30;85.60;;;;;;5087989;28;20494;-24
2023/07/16 06:04:07;;;;;;;8.65;3.95;;;17.30;94.50;;;;;;5085888;28;20047;-24
2023/07/16 06:06:33;;;;;;;11.05;4.10;;;17.60;99.90;;;;;;5093261;28;20051;-23
2023/07/16 06:08:58;;;;;;;11.52;3.88;;;17.50;14.30;;;;;;5096175;28;20520;-24
2023/07/16 06:11:24;;;;;;;11.05;4.53;;;17.30;99.90;;;;;;5086644;28;20036;-24
2023/07/16 06:13:52;;;;;;;9.65;4.28;;;17.30;99.90;;;;;;5088993;28;20550;-24
2023/07/16 06:16:18;;;;;;;8.98;4.40;;;18.00;7.10;;;;;;5091821;28;20105;-24
2023/07/16 06:18:44;;;;;;;13.43;4.43;;;18.80;1.00;;;;;;5082064;28;20466;-23
2023/07/16 06:21:12;;;;;;;12.30;4.50;;;18.60;99.90;;;;;;5083517;28;20076;-22
2023/07/16 06:23:38;;;;;;;10.73;4.22;;;17.70;99.90;;;;;;5076705;28;20132;-23
2023/07/16 06:26:06;;;;;;;11.32;3.47;;;16.90;99.90;;;;;;5076784;28;20057;-23
2023/07/16 06:28:32;;;;;;;13.48;4.60;;;16.70;70.60;;;;;;5059282;28;20049;-23
2023/07/16 06:30:58;;;;;;;10.93;4.13;;;16.60;99.90;;;;;;5075999;28;20044;-23
2023/07/16 06:33:25;;;;;;;10.07;3.63;;;16.90;99.90;;;;;;5077772;28;20036;-23
2023/07/16 06:35:51;;;;;;;10.23;4.65;;;17.30;47.00;;;;;;5096801;28;20131;-23
2023/07/16 06:38:16;;;;;;;15.80;4.47;;;17.20;68.80;;;;;;5078029;28;20131;-23
2023/07/16 06:40:49;;;;;;;10.02;5.30;;;17.10;82.70;;;;;;5096759;28;20059;-23
2023/07/16 06:43:16;;;;;;;12.40;5.03;;;17.00;35.80;;;;;;5095989;28;20043;-23
2023/07/16 06:45:42;;;;;;;11.35;4.57;;;17.30;99.90;;;;;;5096235;28;20098;-23
2023/07/16 06:48:08;;;;;;;12.75;4.82;;;18.00;1.00;;;;;;5084729;28;20048;-23
2023/07/16 06:50:34;;;;;;;14.05;5.13;;;18.30;99.90;;;;;;5092652;28;20482;-23
2023/07/16 06:53:02;;;;;;;11.90;4.97;;;18.20;87.40;;;;;;5082727;28;20052;-23
2023/07/16 06:55:28;;;;;;;11.52;4.55;;;17.90;1.00;;;;;;5087345;28;20122;-23
2023/07/16 06:57:53;;;;;;;14.82;4.63;;;17.50;99.90;;;;;;5079812;28;20177;-23
2023/07/16 07:00:21;;;;;;;9.98;4.13;;;17.30;99.90;;;;;;5094084;28;20413;-23
2023/07/16 07:02:47;;;;;;;9.20;3.83;;;17.20;99.90;;;;;;5096303;28;20100;-23
2023/07/16 07:05:13;;;;;;;15.20;5.07;;;17.10;99.90;;;;;;5096334;28;20127;-23
2023/07/16 07:07:39;;;;;;;10.70;4.57;;;17.20;1.00;;;;;;5089531;28;20059;-23
2023/07/16 07:10:05;;;;;;;13.75;4.43;;;17.40;69.90;;;;;;5094510;28;20050;-23
2023/07/16 07:12:37;;;;;;;9.45;4.25;;;17.50;99.90;;;;;;5096660;28;20382;-24
2023/07/16 07:15:08;;;;;;;9.18;3.88;;;17.70;1.00;;;;;;5096963;28;20152;-23
2023/07/16 07:17:35;;;;;;;9.60;4.37;;;18.10;99.90;;;;;;5091910;28;20049;-23
2023/07/16 07:20:01;;;;;;;19.23;5.07;;;18.30;99.90;;;;;;5089249;28;20040;-23
2023/07/16 07:22:27;;;;;;;8.73;5.40;;;18.20;99.90;;;;;;5075675;28;20060;-23
2023/07/16 07:24:53;;;;;;;13.65;4.68;;;18.30;99.90;;;;;;5090040;28;20215;-24
2023/07/16 07:27:18;;;;;;;21.02;5.28;;;18.30;77.50;;;;;;5095530;28;20050;-23
2023/07/16 07:29:46;;;;;;;13.77;5.38;;;18.20;99.90;;;;;;5080504;28;20048;-23
2023/07/16 07:32:12;;;;;;;11.00;4.57;;;18.00;1.00;;;;;;5082604;28;20048;-24
2023/07/16 07:34:38;;;;;;;16.95;5.70;;;17.70;19.60;;;;;;5087889;28;20115;-23
2023/07/16 07:37:05;;;;;;;14.05;5.78;;;17.60;99.90;;;;;;5079780;28;20582;-23
2023/07/16 07:39:31;;;;;;;12.15;5.28;;;18.10;1.00;;;;;;5081115;28;20091;-23
2023/07/16 07:41:56;;;;;;;12.77;5.18;;;18.50;99.90;;;;;;5080374;28;20076;-23
2023/07/16 07:44:22;;;;;;;9.45;4.25;;;18.50;1.00;;;;;;5062873;28;20040;-24
2023/07/16 07:46:48;;;;;;;12.25;5.07;;;18.40;1.00;;;;;;5089386;28;20076;-23
2023/07/16 07:49:13;;;;;;;8.35;5.05;;;18.50;1.00;;;;;;5094665;28;20056;-24
2023/07/16 07:51:39;;;;;;;16.48;5.88;;;18.80;99.90;;;;;;5095438;28;20509;-24
2023/07/16 07:54:05;;;;;;;10.77;4.60;;;18.60;99.90;;;;;;5073753;28;20050;-24
2023/07/16 07:56:31;;;;;;;10.70;4.78;;;18.20;99.90;;;;;;5074388;28;20416;-24
2023/07/16 07:58:57;;;;;;;9.35;5.18;;;18.00;99.90;;;;;;5074348;28;20052;-24
2023/07/16 08:01:22;;;;;;;13.63;5.05;;;18.50;99.90;;;;;;5075518;28;20044;-24
2023/07/16 08:03:52;;;;;;;12.73;5.18;;;18.80;99.90;;;;;;5075288;28;20167;-24
2023/07/16 08:06:17;;;;;;;9.10;4.68;;;19.00;99.90;;;;;;5074696;28;20055;-24
2023/07/16 08:08:43;;;;;;;10.77;4.85;;;18.70;99.90;;;;;;5074763;28;20052;-24
2023/07/16 08:11:09;;;;;;;11.20;4.38;;;18.50;99.90;;;;;;5075604;28;20121;-24
2023/07/16 08:13:34;;;;;;;11.50;4.32;;;18.30;99.90;;;;;;5073539;28;20528;-24
2023/07/16 08:16:00;;;;;;;12.30;5.15;;;18.50;1.00;;;;;;5073197;28;20092;-24
2023/07/16 08:18:26;;;;;;;10.82;4.95;;;18.60;99.90;;;;;;5074496;28;20053;-23
2023/07/16 08:20:54;;;;;;;13.27;4.93;;;18.10;65.80;;;;;;5057321;28;20330;-24
2023/07/16 08:23:20;;;;;;;11.25;4.43;;;17.70;99.90;;;;;;5089168;28;20048;-23
2023/07/16 08:25:46;;;;;;;10.32;4.32;;;17.70;1.00;;;;;;5079691;28;20385;-24
2023/07/16 08:28:12;;;;;;;10.68;5.38;;;18.10;99.90;;;;;;5074388;28;20049;-28
2023/07/16 08:30:37;;;;;;;11.20;4.85;;;18.10;99.90;;;;;;5074407;28;20479;-24
2023/07/16 08:33:03;;;;;;;10.95;4.93;;;17.80;1.00;;;;;;5074348;28;20045;-24
2023/07/16 08:35:29;;;;;;;12.80;4.88;;;17.60;42.50;;;;;;5077687;28;20051;-23
2023/07/16 08:37:55;;;;;;;10.57;5.63;;;17.60;99.90;;;;;;5094448;28;20138;-24
2023/07/16 08:40:21;;;;;;;12.55;5.78;;;17.90;99.90;;;;;;5082292;28;20379;-23
2023/07/16 08:42:49;;;;;;;13.63;5.47;;;18.50;99.90;;;;;;5091110;28;20048;-24
2023/07/16 08:45:16;;;;;;;10.88;5.20;;;19.40;1.00;;;;;;5089837;28;20044;-24
2023/07/16 08:47:42;;;;;;;13.45;5.38;;;19.90;1.00;;;;;;5073649;28;20406;-24
2023/07/16 08:50:10;;;;;;;10.15;4.68;;;20.10;99.90;;;;;;5073732;28;20071;-24
2023/07/16 08:52:36;;;;;;;14.40;6.63;;;19.90;99.90;;;;;;5075358;28;20048;-24
2023/07/16 08:55:02;;;;;;;15.45;6.18;;;20.30;15.20;;;;;;5073550;28;20044;-24
2023/07/16 08:57:29;;;;;;;10.40;5.60;;;20.10;38.80;;;;;;5074003;28;20129;-24
2023/07/16 08:59:56;;;;;;;14.00;5.13;;;20.30;99.90;;;;;;5073891;28;20520;-24
2023/07/16 09:02:23;;;;;;;11.65;4.78;;;20.60;99.90;;;;;;5073764;28;20053;-24
2023/07/16 09:04:49;;;;;;;13.18;4.93;;;20.90;99.90;;;;;;5086144;28;20043;-24
2023/07/16 09:07:15;;;;;;;10.25;4.65;;;20.90;1.00;;;;;;5091435;28;20101;-24
2023/07/16 09:09:42;;;;;;;11.93;4.38;;;20.90;1.00;;;;;;5082408;28;20043;-24
2023/07/16 09:12:12;;;;;;;13.05;5.20;;;20.90;99.90;;;;;;5089464;28;20060;-23
2023/07/16 09:14:41;;;;;;;11.10;4.10;;;21.10;99.90;;;;;;5092711;28;20047;-24
2023/07/16 09:17:07;;;;;;;8.45;3.80;;;21.10;99.90;;;;;;5088237;28;20055;-24
2023/07/16 09:19:33;;;;;;;12.23;4.35;;;21.00;99.90;;;;;;5085388;28;20052;-24
2023/07/16 09:21:59;;;;;;;8.35;3.35;;;21.30;1.00;;;;;;5075841;28;20528;-24
2023/07/16 09:24:25;;;;;;;8.98;4.43;;;20.50;99.90;;;;;;5074109;28;20044;-24
2023/07/16 09:26:58;;;;;;;11.15;4.72;;;19.60;99.90;;;;;;5075250;28;20045;-23
2023/07/16 09:29:26;;;;;;;12.07;4.88;;;18.80;1.00;;;;;;5079639;28;20044;-22
2023/07/16 09:32:02;;;;;;;16.48;5.25;;;18.20;1.00;;;;;;5093747;28;20044;-22
2023/07/16 09:34:29;;;;;;;13.02;5.07;;;17.80;1.00;;;;;;5083350;28;20111;-22
2023/07/16 09:36:56;;;;;;;12.85;5.30;;;17.90;1.00;;;;;;5073436;28;20048;-23
2023/07/16 09:39:22;;;;;;;13.93;5.45;;;18.50;37.60;;;;;;5072537;28;20118;-23
2023/07/16 09:41:49;;;;;;;8.25;4.43;;;19.20;87.80;;;;;;5073498;28;20040;-23
2023/07/16 09:44:16;;;;;;;13.48;4.72;;;19.30;99.90;;;;;;5074539;28;20083;-23
2023/07/16 09:46:45;;;;;;;9.07;4.30;;;19.00;99.90;;;;;;5081584;28;20048;-23
2023/07/16 09:49:11;;;;;;;9.73;5.13;;;18.70;99.90;;;;;;5073582;28;20102;-23
2023/07/16 09:51:38;;;;;;;8.75;4.60;;;18.50;99.90;;;;;;5073666;28;20481;-23
2023/07/16 09:54:05;;;;;;;9.73;4.90;;;18.30;1.00;;;;;;5072110;28;20041;-23
2023/07/16 09:56:37;;;;;;;9.73;5.15;;;18.30;99.90;;;;;;5072585;28;20509;-23
2023/07/16 09:59:11;;;;;;;10.48;5.50;;;18.80;99.90;;;;;;5073210;28;20052;-23
2023/07/16 10:01:40;;;;;;;9.13;3.88;;;19.10;80.20;;;;;;5072663;28;20486;-23
2023/07/16 10:04:19;;;;;;;10.50;4.65;;;19.70;99.90;;;;;;5073657;28;20079;-23
2023/07/16 10:07:14;;;;;;;9.80;4.10;;;20.50;1.00;;;;;;5073180;28;20040;-24
2023/07/16 10:09:41;;;;;;;9.57;4.10;;;20.60;99.90;;;;;;5069618;28;20080;-26
2023/07/16 10:12:10;;;;;;;9.10;3.70;;;20.20;99.90;;;;;;5076822;28;20498;-24
2023/07/16 10:14:46;;;;;;;8.88;4.40;;;19.80;99.90;;;;;;5072807;28;20402;-24
2023/07/16 10:17:25;;;;;;;16.83;4.40;;;19.60;1.00;;;;;;5073029;28;20478;-24
2023/07/16 10:20:07;;;;;;;11.80;5.47;;;19.50;10.30;;;;;;5073668;28;20044;-24
2023/07/16 10:22:45;;;;;;;9.02;4.45;;;19.50;1.00;;;;;;5076108;28;20040;-24
2023/07/16 10:25:17;;;;;;;9.98;4.60;;;19.80;99.90;;;;;;5076997;28;20090;-24
2023/07/16 10:27:44;;;;;;;10.15;4.50;;;20.40;99.90;;;;;;5077260;28;20053;-24
2023/07/16 10:30:10;;;;;;;10.88;4.07;;;20.60;99.90;;;;;;5078792;28;20732;-24
2023/07/16 10:32:36;;;;;;;11.90;4.53;;;20.50;99.90;;;;;;5095650;28;20051;-24
2023/07/16 10:35:05;;;;;;;7.40;3.60;;;20.20;99.90;;;;;;5097613;28;20040;-24
2023/07/16 10:37:34;;;;;;;9.20;3.85;;;19.80;86.70;;;;;;5094736;28;20048;-23
2023/07/16 10:40:00;;;;;;;10.48;4.60;;;19.30;99.90;;;;;;5081940;28;20123;-23
2023/07/16 10:42:27;;;;;;;13.13;4.40;;;18.90;99.90;;;;;;5096471;28;20554;-23
2023/07/16 10:44:58;;;;;;;13.43;5.10;;;19.10;1.00;;;;;;5095164;28;20048;-24
2023/07/16 10:47:28;;;;;;;10.68;4.00;;;19.70;1.00;;;;;;5096346;28;20044;-24
2023/07/16 10:49:54;;;;;;;9.35;3.75;;;19.80;1.00;;;;;;5097056;28;20048;-26
2023/07/16 10:52:23;;;;;;;8.52;4.30;;;19.80;99.90;;;;;;5095490;28;20056;-24
2023/07/16 10:54:50;;;;;;;8.70;4.25;;;20.30;1.00;;;;;;5095462;28;20044;-24
2023/07/16 10:57:16;;;;;;;11.40;4.70;;;20.50;99.90;;;;;;5085699;28;20494;-24
2023/07/16 10:59:44;;;;;;;14.70;3.83;;;20.30;1.00;;;;;;5076087;28;20094;-25
2023/07/16 11:02:14;;;;;;;9.77;4.32;;;20.00;49.70;;;;;;5074999;28;20466;-25
2023/07/16 11:04:43;;;;;;;10.18;4.05;;;20.10;20.80;;;;;;5059349;28;20044;-24
2023/07/16 11:07:13;;;;;;;9.43;3.53;;;20.40;83.20;;;;;;5085802;28;20055;-24
2023/07/16 11:09:47;;;;;;;12.98;3.88;;;20.70;99.90;;;;;;5080666;28;20048;-24
2023/07/16 11:12:19;;;;;;;9.60;3.75;;;20.50;1.00;;;;;;5081149;28;20054;-24
2023/07/16 11:14:54;;;;;;;12.40;3.90;;;20.00;1.00;;;;;;5077548;28;20066;-25
2023/07/16 11:17:22;;;;;;;11.00;3.45;;;19.80;1.00;;;;;;5075666;28;20056;-24
2023/07/16 11:19:49;;;;;;;7.13;3.63;;;19.90;1.00;;;;;;5075715;28;20055;-25
2023/07/16 11:22:16;;;;;;;8.45;3.60;;;20.30;1.00;;;;;;5074736;28;20044;-24
2023/07/16 11:24:46;;;;;;;7.57;3.70;;;20.80;99.90;;;;;;5082545;28;20036;-24
2023/07/16 11:27:15;;;;;;;9.25;3.00;;;20.70;99.90;;;;;;5096441;28;20048;-25
2023/07/16 11:29:48;;;;;;;10.18;3.85;;;20.10;99.90;;;;;;5095814;28;20047;-25
2023/07/16 11:32:42;;;;;;;9.43;3.85;;;19.60;99.90;;;;;;5094902;28;20079;-23
2023/07/16 11:35:10;;;;;;;10.45;4.40;;;18.80;1.00;;;;;;5092695;28;20482;-23
2023/07/16 11:37:36;;;;;;;10.95;4.65;;;18.60;99.90;;;;;;5095796;28;20044;-25
2023/07/16 11:40:07;;;;;;;11.05;4.20;;;19.40;99.90;;;;;;5096408;28;20518;-24
2023/07/16 11:42:34;;;;;;;8.75;4.10;;;20.50;1.00;;;;;;5095694;28;20047;-25
2023/07/16 11:45:01;;;;;;;9.20;3.65;;;21.40;11.40;;;;;;5093693;28;20486;-26
2023/07/16 11:47:27;;;;;;;13.80;3.55;;;22.30;1.00;;;;;;5092174;28;20044;-25
2023/07/16 11:49:56;;;;;;;5.68;2.83;;;22.20;99.90;;;;;;5094320;28;20501;-24
2023/07/16 11:52:24;;;;;;;6.93;3.38;;;21.80;1.00;;;;;;5062182;28;20052;-25
2023/07/16 11:54:51;;;;;;;10.43;3.60;;;21.30;61.70;;;;;;5081981;28;20064;-26
2023/07/16 11:57:17;;;;;;;12.75;3.28;;;21.00;99.90;;;;;;5095069;28;20079;-25
2023/07/16 11:59:43;;;;;;;7.50;3.13;;;21.10;99.90;;;;;;5089329;28;20076;-25
2023/07/16 12:02:09;;;;;;;9.13;3.67;;;21.90;7.60;;;;;;5091120;28;20058;-25
2023/07/16 12:04:35;;;;;;;11.52;3.90;;;22.50;1.00;;;;;;5073714;28;20043;-26
2023/07/16 12:07:01;;;;;;;10.73;3.80;;;22.70;1.00;;;;;;5073751;28;20045;-26
2023/07/16 12:09:26;;;;;;;8.93;3.88;;;22.20;99.90;;;;;;5075101;28;20053;-26
2023/07/16 12:11:52;;;;;;;12.98;4.55;;;21.70;1.00;;;;;;5074809;28;20490;-26
2023/07/16 12:14:18;;;;;;;10.30;4.80;;;21.60;70.00;;;;;;5086850;28;20075;-26
2023/07/16 12:16:44;;;;;;;11.57;4.35;;;21.40;99.90;;;;;;5095790;28;20480;-26
2023/07/16 12:19:10;;;;;;;12.15;4.70;;;21.10;1.00;;;;;;5089238;28;20317;-26
2023/07/16 12:21:38;;;;;;;11.82;4.50;;;20.70;1.00;;;;;;5081749;28;20406;-26
2023/07/16 12:24:05;;;;;;;13.55;4.50;;;20.40;1.00;;;;;;5073675;28;20036;-25
2023/07/16 12:26:31;;;;;;;12.88;4.57;;;20.30;99.90;;;;;;5093411;28;20056;-26
2023/07/16 12:28:56;;;;;;;8.85;3.80;;;20.40;99.90;;;;;;5094673;28;20051;-26
2023/07/16 12:31:22;;;;;;;8.93;3.40;;;20.60;1.00;;;;;;5076806;28;20091;-25
2023/07/16 12:33:48;;;;;;;12.65;4.38;;;20.70;1.00;;;;;;5094589;28;20366;-25
2023/07/16 12:36:14;;;;;;;9.77;3.30;;;20.60;10.80;;;;;;5093628;28;20647;-26
2023/07/16 12:38:43;;;;;;;10.80;3.67;;;20.20;1.00;;;;;;5056474;28;20052;-25
2023/07/16 12:41:09;;;;;;;10.38;3.55;;;20.30;55.20;;;;;;5074970;28;20051;-25
2023/07/16 12:43:35;;;;;;;10.20;3.72;;;20.40;4.30;;;;;;5072596;28;20122;-26